Terminal Aerodrome Forecast
Issued by NWS Sterling, VA

Current Version | Previous Version | Graphics & Text | Print | Product List | Glossary On
Versions: 1 2 3 4 5 6 7 8 9 10 11 12 13 14 15 16 17 18 19 20 21 22 23 24 25 26 27 28 29
000
FTUS41 KLWX 271015 AAB
TAFDCA
TAF AMD
KDCA 271015Z 2710/2806 35010KT 5SM -RA SCT015 OVC040
     FM271300 36006KT 5SM -RA OVC040
     FM271600 01007KT P6SM OVC045=

USA.gov is the U.S. government's official web portal to all federal, state and local government web resources and services.